KAPG/APG METAR and TAF weather

Enter ICAO airport designator
Station Type Date Time Source
KAPG METAR 2018/12/12 22:50 UTC NOAA

KAPG 122250Z 00000KT 10SM OVC150 00/M04 A3020 RMK SLP230


Station Type Date Time Source
KAPG Decoded METAR 2018/12/12 22:50 UTC NOAA

Phillips Army Air Field / Aberdeen, MD, United States (KAPG) 39-28N 076-10W
Dec 12, 2018 - 05:50 PM EST / 2018.12.12 2250 UTC
Wind: Calm:0
Visibility: 10 mile(s):0
Sky conditions: overcast
Temperature: 32 F (0 C)
Dew Point: 24 F (-4 C)
Relative Humidity: 74%
Pressure (altimeter): 30.2 in. Hg (1022 hPa)
ob: KAPG 122250Z 00000KT 10SM OVC150 00/M04 A3020 RMK SLP230
cycle: 23

Station Type Date Time Source
KAPG TAF UTC NOAA

Error!


Example: see airport list